METAR AND TAF INFORMATION
METAR FOR SKNV
ADDS - METARS form results

(1220 UTC 03 August 2020)
Data provider http://aviationweather.gov/metar/data/
 
METAR text: SKNV 031200Z 19006KT 160V220 9999 NSC 25/16 A3002
Conditions at: SKNV (NEIVA/LA MANGUIT, CO) observed 1200 UTC 03 August 2020
Temperature: 25.0°C (77°F)
Dewpoint: 16.0°C (61°F) [RH = 57%]
Pressure (altimeter): 30.02 inches Hg (1016.7 mb)
Winds: from the S (190 degrees) at 7 MPH (6 knots; 3.1 m/s)
Visibility: 6 or more miles (10+ km)
Ceiling: at least 12,000 feet AGL
Clouds: sky clear below 12,000 feet AGL
Weather: no significant weather observed at this time

 AIRPORT MAP

 RUNWAY INFORMATION
Runway 02 Runway length 5880 ft Runway width 131 ft
Runway elevation 1447 ft Runway displaced threshold 395 ft Runway heading 14
Runway 20 Runway length 5880 ft Runway width 131 ft
Runway elevation 1450 ft Runway displaced threshold 0 ft Runway heading 194

 AIRPORT FREQUENCIES
Type INFO Name NEIVA FIS Frequency 127.1 MHZ
Type RDO Name NEIVA RDO Frequency 348.8 MHZ
Type TWR Name TWR Frequency 118.25 MHZ

 AIRPORT NEAR NAVIGATION AIDS
Type VOR-DME Name Neiva Frequency 115800 KHZ